Nearby METAR Reports

 

KORH - Worcester, Massachusetts, USA
Distance from station: NW 4mi, 7km
Updated: Thu, 29-Oct-2020 6:54pm EDT
Light rain, Mist, Overcast
Light rain, Mist, Overcast
 Wind from NE
Wind: NE 9 mph , 15 km/h, Gust: 18 mph , 30 km/h
Temperature: 41°F , 5°C
Wind Chill: 35°F , 2°C
Dew Point: 37°F , 3°C
Humidity: 87%
Barometer: 29.71 inHg , 1006.1 hPa
Summary: Light rain, Mist
Clouds: Overcast
Visibility: 4 miles , 6 km
Cloud details: Overcast 200 ft
2020/10/29 22:54 KORH 292254Z 04008G16KT 4SM -RA BR OVC002 05/03 A2971 RMK AO2 SLP068 P0007 T00500033
KBOS - Boston, Massachusetts, USA
Distance from station: ENE 42mi, 68km
Updated: Thu, 29-Oct-2020 6:54pm EDT
Light rain, Mist, Overcast
Light rain, Mist, Overcast
 Wind from N
Wind: N 15 mph , 24 km/h
Temperature: 45°F , 7°C
Wind Chill: 38°F , 3°C
Dew Point: 43°F , 6°C
Humidity: 93%
Barometer: 29.76 inHg , 1007.8 hPa
Summary: Light rain, Mist
Clouds: Overcast
Visibility: 4 miles , 6 km
Cloud details: Few Clouds 400 ft
Mostly cloudy 900 ft
Overcast 4500 ft
2020/10/29 22:54 KBOS 292254Z 01013KT 4SM -RA BR FEW004 BKN009 OVC045 07/06 A2976 RMK AO2 SLP077 VIS NE-SE 1 1/2 P0008 T00670056 $
 
KCQX - Chatham, Massachusetts, USA
Distance from station: SE 102mi, 164km
Updated: Thu, 29-Oct-2020 7:13pm EDT
Rain, Mist, Overcast
Rain, Mist, Overcast
 Wind from ENE
Wind: ENE 13 mph , 20 km/h
Temperature: 50°F , 10°C
Wind Chill: 45°F , 7°C
Dew Point: 46°F , 8°C
Humidity: 88%
Barometer: 29.70 inHg , 1005.8 hPa
Summary: Rain, Mist
Clouds: Overcast
Visibility: 4 miles , 6 km
Cloud details: Partly cloudy 800 ft
Mostly cloudy 1500 ft
Overcast 3000 ft
2020/10/29 23:13 KCQX 292313Z AUTO 06011KT 4SM RA BR SCT008 BKN015 OVC030 10/08 A2970 RMK AO2 P0008 T01000083
KMVY - Marthas Vineyard, Massachusetts, USA
Distance from station: SE 84mi, 135km
Updated: Thu, 29-Oct-2020 6:53pm EDT
Rain, Mist, Overcast
Rain, Mist, Overcast
 Wind from NE
Wind: NE 18 mph , 30 km/h
Temperature: 48°F , 9°C
Wind Chill: 41°F , 5°C
Dew Point: 48°F , 9°C
Humidity: 100%
Barometer: 29.65 inHg , 1004.1 hPa
Summary: Rain, Mist
Clouds: Overcast
Visibility: 4 miles , 6 km
Cloud details: Mostly cloudy 800 ft
Overcast 1400 ft
2020/10/29 22:53 KMVY 292253Z 04016KT 4SM RA BR BKN008 OVC014 09/09 A2965 RMK AO2 SLP041 P0012 T00940089
 
KPVC - Provincetown, Massachusetts, USA
Distance from station: NNW 85mi, 136km
Updated: Thu, 29-Oct-2020 6:56pm EDT
Light rain, Overcast
Light rain, Overcast
 Wind from NNE
Wind: NNE 16 mph , 26 km/h, Gust: 23 mph , 37 km/h
Temperature: 48°F , 9°C
Wind Chill: 42°F , 6°C
Dew Point: 46°F , 8°C
Humidity: 94%
Barometer: 29.73 inHg , 1006.8 hPa
Summary: Light rain
Clouds: Overcast
Visibility: 8 miles , 13 km
Cloud details: Mostly cloudy 600 ft
Mostly cloudy 1300 ft
Overcast 1800 ft
2020/10/29 22:56 KPVC 292256Z AUTO 03014G20KT 8SM -RA BKN006 BKN013 OVC018 09/08 A2973 RMK AO2 CIG 004V010 SLP067 P0000 T00890083
KAQW - Savoy, Massachusetts, USA
Distance from station: NNW 66mi, 106km
Updated: Thu, 29-Oct-2020 6:52pm EDT
Light rain, Overcast
Light rain, Overcast
 Wind from calm
Wind: Calm
Temperature: 45°F , 7°C
Dew Point: 41°F , 5°C
Humidity: 87%
Barometer: 29.73 inHg , 1006.8 hPa
Summary: Light rain
Clouds: Overcast
Visibility: 10 miles , 16 km
Cloud details: Mostly cloudy 2400 ft
Overcast 4200 ft
2020/10/29 22:52 KAQW 292252Z AUTO 00000KT 10SM -RA BKN024 OVC042 07/05 A2973 RMK AO2 SLP071 P0004 T00670050
 
KIZG - Fryeburg, Maine, USA
Distance from station: NNE 133mi, 214km
Updated: Thu, 29-Oct-2020 7:15pm EDT
Light rain, Overcast
Light rain, Overcast
 Wind from NNE
Wind: NNE 7 mph , 11 km/h
Temperature: 41°F , 5°C
Wind Chill: 36°F , 2°C
Dew Point: 37°F , 3°C
Humidity: 87%
Barometer: 29.83 inHg , 1010.2 hPa
Summary: Light rain
Clouds: Overcast
Visibility: 8 miles , 13 km
Cloud details: Few Clouds 700 ft
Mostly cloudy 1000 ft
Overcast 1900 ft
2020/10/29 23:15 KIZG 292315Z AUTO 03006KT 8SM -RA FEW007 BKN010 OVC019 05/03 A2983 RMK AO2 P0002 T00500033
KMWN - Mt Washington, New Hampshire, USA
Distance from station: NNE 146mi, 234km
Updated: Thu, 29-Oct-2020 5:49pm EDT
NOT Current
Freezing fog, Light snow, Overcast
Freezing fog, Light snow, Overcast
 Wind from WNW
Wind: WNW 5 mph , 7 km/h
Temperature: 21°F , -6°C
Wind Chill: 14°F , -10°C
Dew Point: 21°F , -6°C
Humidity: 100%
Summary: Freezing fog, Light snow
Clouds: Overcast
Visibility: 1/16 mile , 0.1 km
Cloud details: Overcast 100 ft
2020/10/29 21:49 KMWN 292149Z 29004KT 1/16SM FZFG -SN VV001 M06/M06 RMK VRY LGT ICG
 
KBML - Berlin, New Hampshire, USA
Distance from station: NNE 160mi, 257km
Updated: Thu, 29-Oct-2020 7:07pm EDT
Light rain, Overcast
Light rain, Overcast
 Wind from calm
Wind: Calm
Temperature: 36°F , 2°C
Dew Point: 34°F , 1°C
Humidity: 93%
Barometer: 29.83 inHg , 1010.2 hPa
Summary: Light rain
Clouds: Overcast
Visibility: 9 miles , 14 km
Cloud details: Partly cloudy 1100 ft
Overcast 3100 ft
2020/10/29 23:07 KBML 292307Z AUTO 00000KT 9SM -RA SCT011 OVC031 02/01 A2983 RMK AO2 P0000 T00170011